Skip Navigation LinksHome page > Weather > Current weather Skip Navigation Links

Current Weather

Cranfield, United Kingdom

For information only: do not use for flight planning or navigation.
Latest weather
Observation time Wednesday, October 27, 2021 8:20 AM BST
Local time Wednesday, October 27, 2021 8:50 AM BST
Flight conditions Marginal Visual Meteorological Conditions
Winds
Wind direction Southwest (220°)
Wind speed 20 mph
Visibility 6.2 mi.
Sky condition
Ceiling 2,300 ft. broken clouds
Cloud layer few clouds 1,100 ft.
Cloud layer broken clouds 2,300 ft.
Temperature 55°F
Dewpoint 54°F
Altimeter 30.03 in.Hg
Derived measurements
Relative humidity 94%
Density altitude -168 ft.
METAR EGTC 270720Z 22017KT 9999 FEW011 BKN023 13/12 Q1017

Settings

Location code

InnerDrive.Weather 4.0.6770.0 Release CLR 4.0.30319.42000
Copyright ©2018 Inner Drive Technology. All rights reserved. Portions Copyright ©1986-2018 David Braverman.

Find weather

Site navigation


Skip Navigation Links

Place info

Page info

PayPal - The safer, easier way to pay online!

Return home.

Copyright ©2021 Inner Drive Technology. Purveyors of fine, hand-crafted computer software. Page printed 2021-10-27T07:50:39 UTC.